Sturgeon Falls, Canada
Current Conditions -  °F | °C
As of 9:00 AM on Friday 24 Oct 2014 (Local Time) from CYYB Reporting Station
Moderate Fog Moderate Fog  
Wind Chill: 30°   Ceiling: Unl
Heat Index: 34°   Visibility: 0.25mi
Dew Point: 34°   Wind: 5mph
Humidity: 100%   Direction: 90°E
Pressure: 29.99"   Gusts: NA
Location:  46.37°N, 79.93°W
Report Text: CYYB 241300Z 09004KT 1/4SM R08/0800V1800FT/U FG FEW240 01/01 A2999 RMK CI1 SLP172
Loading
Personal Weather Stations






























Interactive Weather Map
Tropical Storm Tracking
New forecast layout! Learn more

10-Day Weather Forecast

Advertisements
Track Severe Weather on mobile